Time;durP1;ratioP1;P1;durP2;ratioP2;P2;SDS_P1;SDS_P2;PMS_P1;PMS_P2;Temp;Humidity;BMP_temperature;BMP_pressure;BME280_temperature;BME280_humidity;BME280_pressure;Samples;Min_cycle;Max_cycle;Signal;HPM_P1;HPM_P2
2022/03/27 00:01:09;;;;;;;7.70;4.00;;;;;;;8.89;78.26;103109.16;5033337;28;20033;-82
2022/03/27 00:03:34;;;;;;;7.37;3.97;;;;;;;8.87;75.48;103110.81;5033895;28;20025;-82
2022/03/27 00:06:00;;;;;;;7.47;3.90;;;;;;;8.82;77.93;103097.75;5034607;28;20363;-82
2022/03/27 00:08:25;;;;;;;6.10;3.63;;;;;;;8.78;77.92;103104.50;5033031;28;20073;-82
2022/03/27 00:13:34;;;;;;;5.82;3.42;;;;;;;8.77;75.73;103114.84;5033820;28;20075;-81
2022/03/27 00:15:59;;;;;;;5.57;3.33;;;;;;;8.76;76.43;103113.09;5033920;28;20414;-81
2022/03/27 00:18:25;;;;;;;5.50;3.42;;;;;;;8.74;76.55;103114.75;5033641;28;20033;-82
2022/03/27 00:20:52;;;;;;;6.13;3.33;;;;;;;8.72;76.99;103109.53;5034075;28;20388;-81
2022/03/27 00:23:18;;;;;;;6.78;3.20;;;;;;;8.70;76.15;103120.69;5033703;28;20474;-81
2022/03/27 00:25:45;;;;;;;5.37;3.10;;;;;;;8.68;76.10;103115.44;5033778;28;20067;-81
2022/03/27 00:28:11;;;;;;;3.80;2.83;;;;;;;8.67;76.44;103118.00;5033253;28;20036;-81
2022/03/27 00:30:37;;;;;;;4.03;2.50;;;;;;;8.65;74.65;103115.38;5033921;28;20033;-81
2022/03/27 00:33:02;;;;;;;4.07;2.83;;;;;;;8.61;77.39;103116.97;5033504;28;20052;-81
2022/03/27 00:35:27;;;;;;;6.53;3.50;;;;;;;8.57;79.78;103111.66;5032668;28;20453;-81
2022/03/27 00:37:53;;;;;;;5.90;3.57;;;;;;;8.53;76.83;103110.69;5033311;28;20017;-81
2022/03/27 00:40:19;;;;;;;6.87;3.53;;;;;;;8.53;79.04;103113.28;5033401;28;20025;-81
2022/03/27 00:42:45;;;;;;;5.95;3.55;;;;;;;8.51;76.69;103120.13;5033223;28;20025;-82
2022/03/27 00:45:10;;;;;;;5.40;3.27;;;;;;;8.50;78.78;103118.38;5032940;28;20033;-81
2022/03/27 00:47:35;;;;;;;5.17;3.13;;;;;;;8.49;76.20;103114.06;5033607;28;20117;-81
2022/03/27 00:50:00;;;;;;;5.05;2.63;;;;;;;8.45;75.68;103107.84;5032998;28;20033;-81
2022/03/27 00:52:26;;;;;;;5.40;3.50;;;;;;;8.45;78.09;103113.03;5033298;28;20079;-81
2022/03/27 00:54:51;;;;;;;4.30;2.93;;;;;;;8.45;75.71;103109.56;5032705;28;20021;-81
2022/03/27 00:57:19;;;;;;;4.78;2.63;;;;;;;8.44;75.46;103111.28;5032410;28;20531;-81
2022/03/27 00:59:44;;;;;;;4.35;2.50;;;;;;;8.43;74.34;103101.78;5033402;28;20065;-81
2022/03/27 01:02:10;;;;;;;3.37;2.47;;;;;;;8.43;74.12;103104.34;5033261;28;20049;-81
2022/03/27 01:04:41;;;;;;;3.20;2.27;;;;;;;8.42;73.73;103112.06;5032164;28;20913;-81
2022/03/27 01:07:06;;;;;;;2.38;2.10;;;;;;;8.40;73.79;103108.53;5033564;28;20636;-82
2022/03/27 01:09:38;;;;;;;2.20;2.00;;;;;;;8.41;73.61;103108.59;5032856;28;20029;-81
2022/03/27 01:12:19;;;;;;;2.83;2.13;;;;;;;8.40;73.43;103104.25;5032313;28;20028;-81
2022/03/27 01:14:45;;;;;;;3.70;2.20;;;;;;;8.39;73.53;103101.63;5033330;28;20033;-81
2022/03/27 01:17:15;;;;;;;2.73;2.20;;;;;;;8.36;74.25;103104.97;5032532;28;20029;-81
2022/03/27 01:19:43;;;;;;;2.10;1.80;;;;;;;8.34;73.66;103111.81;5032783;28;20017;-81
2022/03/27 01:22:09;;;;;;;2.40;2.05;;;;;;;8.32;73.18;103108.31;5033165;28;20087;-81
2022/03/27 01:24:34;;;;;;;2.53;2.03;;;;;;;8.26;72.95;103093.50;5032482;28;20029;-82
2022/03/27 01:26:59;;;;;;;2.07;1.87;;;;;;;8.28;73.19;103098.72;5032932;28;20035;-81
2022/03/27 01:29:25;;;;;;;2.30;2.10;;;;;;;8.23;74.86;103095.09;5032114;28;20029;-81
2022/03/27 01:31:53;;;;;;;3.10;2.10;;;;;;;8.19;74.13;103092.44;5031867;28;20044;-81
2022/03/27 01:34:19;;;;;;;3.70;2.10;;;;;;;8.16;74.14;103097.50;5032578;28;20066;-81
2022/03/27 01:36:45;;;;;;;2.30;1.90;;;;;;;8.14;75.48;103099.16;5032377;28;20053;-82
2022/03/27 01:39:12;;;;;;;2.63;2.20;;;;;;;8.08;76.83;103090.31;5031672;28;20029;-81
2022/03/27 01:41:39;;;;;;;2.50;2.10;;;;;;;8.04;76.79;103091.94;5032394;28;20128;-82
2022/03/27 01:44:06;;;;;;;2.40;2.15;;;;;;;7.98;76.36;103079.69;5032792;28;20021;-81
2022/03/27 01:46:33;;;;;;;2.20;2.00;;;;;;;7.96;75.17;103086.53;5031707;28;20021;-81
2022/03/27 01:49:03;;;;;;;2.70;2.10;;;;;;;7.96;76.79;103090.81;5032419;28;20033;-82
2022/03/27 01:51:29;;;;;;;3.08;2.10;;;;;;;7.91;76.85;103090.69;5032182;28;20029;-82
2022/03/27 01:53:55;;;;;;;3.97;2.55;;;;;;;7.89;76.19;103093.19;5032183;28;20018;-82
2022/03/27 01:56:20;;;;;;;3.65;2.42;;;;;;;7.87;76.82;103102.63;5032073;28;20429;-81
2022/03/27 01:58:46;;;;;;;2.60;2.10;;;;;;;7.82;76.04;103093.84;5032536;28;20408;-81
2022/03/27 02:01:11;;;;;;;3.20;2.30;;;;;;;7.80;75.40;103087.75;5031828;28;20458;-81
2022/03/27 02:03:37;;;;;;;2.90;2.20;;;;;;;7.78;77.36;103086.81;5032253;28;20030;-81
2022/03/27 02:06:05;;;;;;;2.20;2.00;;;;;;;7.78;76.43;103098.88;5032193;28;20018;-81
2022/03/27 02:08:31;;;;;;;4.88;3.15;;;;;;;7.68;80.11;103095.09;5035201;28;20064;-81
2022/03/27 02:10:56;;;;;;;4.78;2.75;;;;;;;7.67;77.96;103101.09;5036291;28;20505;-81
2022/03/27 02:13:22;;;;;;;3.75;2.60;;;;;;;7.66;76.69;103095.06;5035980;28;20025;-81
2022/03/27 02:15:49;;;;;;;4.43;2.85;;;;;;;7.64;78.35;103095.84;5036030;28;20028;-81
2022/03/27 02:18:15;;;;;;;5.57;3.20;;;;;;;7.65;77.46;103105.34;5036483;28;20022;-81
2022/03/27 02:20:41;;;;;;;7.18;3.95;;;;;;;7.57;79.53;103100.78;5035590;28;20033;-81
2022/03/27 02:23:07;;;;;;;5.70;3.67;;;;;;;7.57;78.95;103094.75;5036038;28;20040;-81
2022/03/27 02:25:33;;;;;;;10.55;5.43;;;;;;;7.49;83.21;103102.25;5035555;28;20088;-81
2022/03/27 02:27:58;;;;;;;10.80;5.20;;;;;;;7.49;81.36;103097.06;5035693;28;20025;-81
2022/03/27 02:30:23;;;;;;;9.27;4.77;;;;;;;7.48;82.46;103091.88;5035960;28;20029;-81
2022/03/27 02:32:48;;;;;;;9.97;5.30;;;;;;;7.46;83.32;103093.50;5035952;28;20053;-81
2022/03/27 02:35:17;;;;;;;12.53;5.47;;;;;;;7.48;83.64;103094.44;5034954;28;20544;-81
2022/03/27 02:37:45;;;;;;;11.18;5.70;;;;;;;7.46;82.77;103091.78;5035903;28;20060;-82
2022/03/27 02:40:11;;;;;;;11.98;5.80;;;;;;;7.46;82.19;103096.97;5036207;28;20036;-81
2022/03/27 02:42:36;;;;;;;15.17;6.80;;;;;;;7.40;82.50;103089.88;5034741;28;20025;-81
2022/03/27 02:45:02;;;;;;;14.33;6.70;;;;;;;7.46;82.37;103098.69;5035660;28;20474;-81
2022/03/27 02:47:27;;;;;;;11.70;6.30;;;;;;;7.41;85.76;103094.22;5035504;28;20036;-81
2022/03/27 02:49:52;;;;;;;17.33;8.25;;;;;;;7.37;87.75;103091.47;5034526;28;20384;-81
2022/03/27 02:52:17;;;;;;;16.00;7.90;;;;;;;7.39;84.33;103095.88;5035388;28;20087;-81
2022/03/27 02:54:44;;;;;;;17.87;8.63;;;;;;;7.36;86.03;103093.19;5035823;28;20033;-81
2022/03/27 02:57:09;;;;;;;19.90;9.68;;;;;;;7.32;87.94;103093.91;5034731;28;20030;-81
2022/03/27 02:59:35;;;;;;;18.08;8.70;;;;;;;7.31;87.11;103104.19;5035107;28;20025;-81
2022/03/27 03:02:02;;;;;;;18.00;8.80;;;;;;;7.31;87.46;103101.63;5034706;28;20030;-81
2022/03/27 03:04:31;;;;;;;18.70;9.43;;;;;;;7.29;87.30;103095.50;5034646;28;20176;-81
2022/03/27 03:06:57;;;;;;;16.23;8.00;;;;;;;7.29;86.00;103100.69;5035589;28;20086;-81
2022/03/27 03:09:23;;;;;;;18.23;9.30;;;;;;;7.31;88.36;103101.63;5034841;28;20037;-81
2022/03/27 03:11:49;;;;;;;17.47;8.47;;;;;;;7.33;87.60;103093.09;5033997;28;20038;-81
2022/03/27 03:14:14;;;;;;;18.80;8.93;;;;;;;7.30;86.86;103087.81;5035500;28;20037;-81
2022/03/27 03:16:40;;;;;;;17.33;9.00;;;;;;;7.34;87.89;103088.78;5034530;28;20417;-81
2022/03/27 03:19:05;;;;;;;17.95;8.65;;;;;;;7.33;86.79;103079.28;5034311;28;20034;-81
2022/03/27 03:21:31;;;;;;;19.73;9.52;;;;;;;7.34;87.41;103086.19;5035033;28;20442;-81
2022/03/27 03:23:56;;;;;;;14.67;7.43;;;;;;;7.37;86.30;103083.72;5034225;28;20025;-81
2022/03/27 03:26:22;;;;;;;17.30;8.50;;;;;;;7.35;86.64;103075.94;5034561;28;20029;-80
2022/03/27 03:28:47;;;;;;;15.40;7.53;;;;;;;7.37;85.24;103075.97;5035267;28;20029;-81
2022/03/27 03:31:12;;;;;;;14.68;7.20;;;;;;;7.38;86.48;103070.00;5033999;28;20034;-80
2022/03/27 03:33:38;;;;;;;12.40;6.33;;;;;;;7.41;83.90;103076.13;5034990;28;20075;-80
2022/03/27 03:36:03;;;;;;;12.23;6.13;;;;;;;7.48;83.59;103076.34;5034482;28;20085;-81
2022/03/27 03:38:28;;;;;;;15.53;7.97;;;;;;;7.45;87.79;103076.25;5033331;28;20045;-81
2022/03/27 03:40:54;;;;;;;16.97;8.20;;;;;;;7.46;86.12;103073.72;5035024;28;20036;-81
2022/03/27 03:43:25;;;;;;;16.23;7.77;;;;;;;7.45;85.54;103074.53;5034370;28;20037;-81
2022/03/27 03:45:50;;;;;;;14.60;7.18;;;;;;;7.42;84.29;103061.53;5033706;28;20032;-80
2022/03/27 03:48:16;;;;;;;13.70;6.50;;;;;;;7.49;83.64;103068.66;5034220;28;20029;-80
2022/03/27 03:50:41;;;;;;;14.32;6.90;;;;;;;7.53;84.90;103070.53;5034783;28;20032;-80
2022/03/27 03:53:07;;;;;;;15.18;7.72;;;;;;;7.53;87.72;103073.09;5033961;28;20052;-80
2022/03/27 03:55:34;;;;;;;15.10;7.43;;;;;;;7.52;85.38;103078.19;5034221;28;20021;-81
2022/03/27 03:58:02;;;;;;;17.02;8.48;;;;;;;7.47;86.90;103062.53;5034300;28;20359;-81
2022/03/27 04:00:28;;;;;;;18.98;9.70;;;;;;;7.42;87.49;103070.16;5033321;28;20209;-80
2022/03/27 04:02:53;;;;;;;18.73;9.00;;;;;;;7.40;87.70;103079.53;5034383;28;20495;-80
2022/03/27 04:05:19;;;;;;;17.73;8.90;;;;;;;7.36;86.82;103080.28;5034337;28;20021;-80
2022/03/27 04:07:44;;;;;;;19.00;9.70;;;;;;;7.31;89.57;103081.81;5033709;28;20029;-80
2022/03/27 04:10:10;;;;;;;18.40;9.37;;;;;;;7.34;86.08;103083.63;5034487;28;20107;-80
2022/03/27 04:12:35;;;;;;;19.30;10.00;;;;;;;7.28;89.61;103088.59;5033943;28;20051;-81
2022/03/27 04:15:00;;;;;;;18.08;9.43;;;;;;;7.27;86.61;103082.53;5033039;28;20533;-80
2022/03/27 04:17:26;;;;;;;18.70;9.48;;;;;;;7.26;88.31;103079.09;5033962;28;20025;-80
2022/03/27 04:19:51;;;;;;;16.48;8.35;;;;;;;7.25;86.67;103066.13;5033776;28;20088;-81
2022/03/27 04:22:16;;;;;;;17.25;8.50;;;;;;;7.28;87.33;103073.09;5032394;28;20029;-80
2022/03/27 04:24:42;;;;;;;17.25;8.40;;;;;;;7.33;86.80;103077.59;5033753;28;20083;-80
2022/03/27 04:27:07;;;;;;;16.80;8.00;;;;;;;7.31;86.55;103075.78;5032843;28;20032;-80
2022/03/27 04:29:33;;;;;;;17.23;7.82;;;;;;;7.33;88.10;103075.00;5032161;28;20409;-81
2022/03/27 04:31:58;;;;;;;18.93;10.00;;;;;;;7.27;88.95;103077.38;5033871;28;20033;-81
2022/03/27 04:34:23;;;;;;;19.27;9.73;;;;;;;7.28;88.66;103080.84;5032818;28;20029;-80
2022/03/27 04:36:49;;;;;;;18.73;9.55;;;;;;;7.28;88.91;103080.84;5033522;28;20095;-80
2022/03/27 04:39:14;;;;;;;17.48;8.55;;;;;;;7.29;88.30;103085.19;5033944;28;20025;-81
2022/03/27 04:41:40;;;;;;;15.97;8.23;;;;;;;7.28;88.57;103078.25;5032326;28;20401;-81
2022/03/27 04:44:07;;;;;;;15.32;7.70;;;;;;;7.30;88.00;103084.38;5033065;28;20496;-81
2022/03/27 04:46:33;;;;;;;17.52;8.30;;;;;;;7.30;88.75;103082.66;5033228;28;20033;-80
2022/03/27 04:48:58;;;;;;;17.02;8.25;;;;;;;7.23;87.12;103078.97;5032898;28;20040;-81
2022/03/27 04:51:23;;;;;;;16.10;7.70;;;;;;;7.29;87.02;103083.47;5033305;28;20037;-81
2022/03/27 04:53:49;;;;;;;16.50;8.30;;;;;;;7.28;88.93;103075.69;5033402;28;20037;-81
2022/03/27 04:56:15;;;;;;;19.23;9.70;;;;;;;7.24;89.39;103080.72;5032837;28;20041;-80
2022/03/27 04:58:41;;;;;;;22.43;12.30;;;;;;;7.12;90.99;103077.72;5033255;28;20529;-81
2022/03/27 05:01:07;;;;;;;19.83;10.55;;;;;;;7.14;89.40;103078.66;5032633;28;20117;-80
2022/03/27 05:03:32;;;;;;;19.42;10.15;;;;;;;7.14;89.72;103080.38;5032067;28;20030;-80
2022/03/27 05:05:58;;;;;;;19.07;9.87;;;;;;;7.16;88.21;103082.16;5033325;28;20033;-81
2022/03/27 05:08:23;;;;;;;18.77;9.13;;;;;;;7.19;88.79;103092.63;5033125;28;20025;-80
2022/03/27 05:10:48;;;;;;;18.13;8.83;;;;;;;7.19;89.51;103095.19;5032430;28;20464;-80
2022/03/27 05:13:17;;;;;;;18.40;9.40;;;;;;;7.17;89.29;103099.44;5032774;28;20031;-80
2022/03/27 05:15:43;;;;;;;18.00;9.20;;;;;;;7.18;89.12;103103.78;5033294;28;20028;-80
2022/03/27 05:18:08;;;;;;;19.43;9.67;;;;;;;7.17;88.81;103099.44;5032265;28;20025;-80
2022/03/27 05:20:39;;;;;;;17.92;8.10;;;;;;;7.19;88.87;103109.81;5032294;28;20017;-80
2022/03/27 05:23:04;;;;;;;17.95;9.07;;;;;;;7.19;88.92;103102.94;5032884;28;20535;-81
2022/03/27 05:25:30;;;;;;;21.33;11.13;;;;;;;7.10;89.39;103105.19;5031628;28;20033;-80
2022/03/27 05:27:58;;;;;;;20.47;10.87;;;;;;;7.09;89.28;103103.44;5032957;28;20461;-80
2022/03/27 05:30:26;;;;;;;19.05;9.40;;;;;;;7.09;89.54;103108.63;5031863;28;20469;-81
2022/03/27 05:32:53;;;;;;;19.95;9.88;;;;;;;7.05;89.38;103099.84;5032741;28;20017;-81
2022/03/27 05:35:20;;;;;;;18.50;9.10;;;;;;;7.01;88.62;103110.03;5032351;28;20176;-81
2022/03/27 05:37:47;;;;;;;19.63;9.70;;;;;;;6.92;88.88;103103.72;5032069;28;20120;-81
2022/03/27 05:40:20;;;;;;;20.42;9.88;;;;;;;6.86;88.86;103105.19;5032325;28;20024;-80
2022/03/27 05:42:47;;;;;;;17.98;8.38;;;;;;;6.89;89.57;103116.50;5032355;28;20032;-80
2022/03/27 05:45:13;;;;;;;;;;;;;;;6.87;89.27;103118.13;5032647;28;20048;-81
2022/03/27 05:47:41;;;;;;;19.70;9.23;;;;;;;6.86;88.92;103124.16;5032437;28;19913;-81
2022/03/27 05:50:08;;;;;;;18.95;8.98;;;;;;;6.81;88.98;103112.75;5032518;28;20029;-81
2022/03/27 05:52:34;;;;;;;17.35;7.88;;;;;;;6.79;87.80;103115.31;5031099;28;20025;-80
2022/03/27 05:55:00;;;;;;;21.60;9.87;;;;;;;6.72;90.38;103120.16;5032432;28;20024;-81
2022/03/27 05:57:25;;;;;;;21.17;10.27;;;;;;;6.64;90.43;103118.16;5032478;28;20033;-81
2022/03/27 05:59:51;;;;;;;20.90;9.75;;;;;;;6.63;90.01;103118.13;5031614;28;20017;-80
2022/03/27 06:02:16;;;;;;;21.63;9.93;;;;;;;6.61;89.28;103127.50;5032319;28;20040;-81
2022/03/27 06:04:44;;;;;;;19.30;8.57;;;;;;;6.62;88.75;103122.41;5032128;28;20108;-81
2022/03/27 06:07:10;;;;;;;22.33;9.68;;;;;;;6.63;89.22;103125.84;5031567;28;20030;-80
2022/03/27 06:09:36;;;;;;;21.00;9.67;;;;;;;6.63;90.33;103131.91;5031753;28;20029;-83
2022/03/27 06:12:03;;;;;;;21.13;9.50;;;;;;;6.65;89.58;103138.00;5032770;28;20029;-83
2022/03/27 06:14:31;;;;;;;21.15;9.57;;;;;;;6.64;90.07;103131.06;5030993;28;20025;-82
2022/03/27 06:16:57;;;;;;;21.15;9.75;;;;;;;6.67;89.79;103135.47;5032368;28;20021;-84
2022/03/27 06:19:22;;;;;;;22.33;10.97;;;;;;;6.66;90.70;103131.16;5032049;28;20037;-78
2022/03/27 06:21:48;;;;;;;20.33;9.52;;;;;;;6.68;89.13;103134.66;5031645;28;20029;-78
2022/03/27 06:24:13;;;;;;;21.92;10.10;;;;;;;6.66;90.72;103133.72;5032241;28;20029;-78
2022/03/27 06:26:40;;;;;;;22.70;10.52;;;;;;;6.65;90.27;103135.41;5030990;28;20021;-80
2022/03/27 06:29:14;;;;;;;23.15;11.07;;;;;;;6.66;89.86;103141.47;5032036;28;20052;-81
2022/03/27 06:31:39;;;;;;;26.00;13.45;;;;;;;6.59;91.58;103132.59;5031680;28;20504;-81
2022/03/27 06:34:06;;;;;;;24.67;12.47;;;;;;;6.56;91.11;103137.63;5031656;28;20057;-80
2022/03/27 06:36:31;;;;;;;;;;;;;;;6.51;92.43;103139.19;5031928;28;20382;-81
2022/03/27 06:38:57;;;;;;;25.53;12.33;;;;;;;6.51;91.42;103138.28;5032256;28;19920;-80
2022/03/27 06:41:22;;;;;;;23.70;11.13;;;;;;;6.58;91.25;103142.88;5030458;28;20037;-80
2022/03/27 06:43:47;;;;;;;22.63;10.38;;;;;;;6.60;90.65;103138.63;5032059;28;20117;-80
2022/03/27 06:46:16;;;;;;;24.45;11.35;;;;;;;6.61;91.84;103140.41;5032256;28;20386;-80
2022/03/27 06:48:44;;;;;;;27.63;13.85;;;;;;;6.54;91.96;103143.56;5031397;28;20116;-80
2022/03/27 06:51:10;;;;;;;25.65;12.02;;;;;;;6.57;91.80;103139.41;5031513;28;20046;-80
2022/03/27 06:53:36;;;;;;;25.13;11.87;;;;;;;6.60;91.35;103141.22;5033602;28;20034;-80
2022/03/27 06:56:01;;;;;;;25.73;12.20;;;;;;;6.59;91.72;103142.03;5035261;28;20030;-80
2022/03/27 06:58:26;;;;;;;24.70;11.60;;;;;;;6.61;90.94;103138.72;5034955;28;20033;-80
2022/03/27 07:03:36;;;;;;;24.92;11.60;;;;;;;6.64;90.47;103137.94;5034703;28;20099;-79
2022/03/27 07:06:01;;;;;;;25.17;11.53;;;;;;;6.70;91.51;103143.31;5035197;28;20026;-79
2022/03/27 07:08:26;;;;;;;26.27;13.10;;;;;;;6.71;91.91;103141.63;5034974;28;20382;-80
2022/03/27 07:10:52;;;;;;;28.00;13.90;;;;;;;6.73;92.12;103146.03;5034822;28;20017;-79
2022/03/27 07:13:19;;;;;;;30.85;15.35;;;;;;;6.72;91.88;103145.97;5035307;28;20121;-83
2022/03/27 07:15:46;;;;;;;26.90;12.75;;;;;;;6.74;91.02;103140.03;5034813;28;20022;-82
2022/03/27 07:18:13;;;;;;;27.90;12.85;;;;;;;6.79;91.20;103140.22;5034632;28;20033;-80
2022/03/27 07:20:43;;;;;;;;;;;;;;;6.86;90.54;103141.31;5035813;28;20029;-80
2022/03/27 07:23:11;;;;;;;25.65;12.07;;;;;;;6.89;90.75;103139.72;5034187;28;19932;-80
2022/03/27 07:25:42;;;;;;;25.80;12.45;;;;;;;6.94;90.33;103140.78;5034466;28;20045;-82
2022/03/27 07:28:09;;;;;;;28.23;13.68;;;;;;;6.91;90.69;103140.66;5035218;28;20213;-82
2022/03/27 07:30:35;;;;;;;27.27;12.88;;;;;;;6.90;90.05;103133.75;5034544;28;20021;-81
2022/03/27 07:33:02;;;;;;;28.43;13.67;;;;;;;6.93;91.02;103139.03;5035029;28;20037;-82
2022/03/27 07:35:30;;;;;;;24.75;11.10;;;;;;;6.99;89.23;103147.81;5034367;28;20045;-80
2022/03/27 07:37:56;;;;;;;22.65;10.98;;;;;;;7.04;89.45;103147.16;5034496;28;20094;-79
2022/03/27 07:40:21;;;;;;;22.03;9.70;;;;;;;7.10;89.30;103138.75;5034934;28;20052;-79
2022/03/27 07:42:49;;;;;;;23.30;10.57;;;;;;;7.14;89.65;103144.94;5034873;28;20038;-80
2022/03/27 07:45:18;;;;;;;24.23;11.48;;;;;;;7.16;89.96;103143.25;5033633;28;20103;-80
2022/03/27 07:47:43;;;;;;;25.20;11.95;;;;;;;7.15;89.90;103142.41;5035050;28;20373;-80
2022/03/27 07:50:12;;;;;;;24.40;11.60;;;;;;;7.14;89.49;103143.22;5035652;28;20035;-80
2022/03/27 07:52:39;;;;;;;24.95;11.18;;;;;;;7.18;88.80;103136.44;5034267;28;20036;-80
2022/03/27 07:55:09;;;;;;;22.05;9.93;;;;;;;7.24;88.92;103136.69;5047428;28;20094;-79
2022/03/27 07:57:34;;;;;;;25.00;11.95;;;;;;;7.25;88.28;103141.91;5037991;28;20088;-80
2022/03/27 08:00:03;;;;;;;28.27;14.90;;;;;;;7.22;88.92;103146.06;5035260;28;20481;-81
2022/03/27 08:02:31;;;;;;;30.58;15.77;;;;;;;6.96;89.92;103146.00;5035044;28;20025;-80
2022/03/27 08:04:57;;;;;;;31.63;15.82;;;;;;;6.83;90.26;103141.19;5033668;28;20091;-80
2022/03/27 08:07:22;;;;;;;27.93;14.20;;;;;;;6.80;90.55;103153.19;5034262;28;20486;-82
2022/03/27 08:09:47;;;;;;;27.35;14.10;;;;;;;6.75;90.65;103149.56;5034733;28;20033;-81
2022/03/27 08:12:13;;;;;;;26.40;13.68;;;;;;;6.77;89.98;103144.44;5033577;28;20061;-81
2022/03/27 08:14:39;;;;;;;28.00;14.63;;;;;;;6.70;90.92;103140.75;5034322;28;20029;-81
2022/03/27 08:17:05;;;;;;;26.27;13.13;;;;;;;6.75;90.65;103139.22;5034343;28;20025;-81
2022/03/27 08:19:31;;;;;;;27.40;14.20;;;;;;;6.75;90.75;103135.78;5033285;28;20108;-81
2022/03/27 08:22:01;;;;;;;24.58;11.82;;;;;;;6.84;89.39;103140.38;5034049;28;20120;-81
2022/03/27 08:24:26;;;;;;;24.02;11.52;;;;;;;6.87;89.83;103130.19;5033793;28;20462;-82
2022/03/27 08:27:00;;;;;;;23.47;11.77;;;;;;;6.97;89.50;103150.34;5032745;28;20052;-80
2022/03/27 08:29:31;;;;;;;27.08;13.35;;;;;;;6.94;89.64;103152.81;5033839;28;20072;-80
2022/03/27 08:32:00;;;;;;;28.80;14.75;;;;;;;6.84;89.72;103150.72;5033925;28;20033;-80
2022/03/27 08:34:26;;;;;;;27.58;14.90;;;;;;;6.85;89.86;103145.63;5032993;28;20025;-80
2022/03/27 08:36:52;;;;;;;27.17;13.90;;;;;;;6.99;88.22;103150.38;5033376;28;20055;-79
2022/03/27 08:39:18;;;;;;;26.00;13.43;;;;;;;6.97;89.19;103147.75;5033091;28;20424;-80
2022/03/27 08:41:44;;;;;;;26.65;14.02;;;;;;;6.88;88.65;103152.59;5032771;28;20025;-80
2022/03/27 08:44:11;;;;;;;26.70;13.80;;;;;;;6.62;89.44;103158.53;5033853;28;20026;-80
2022/03/27 08:46:36;;;;;;;24.25;12.23;;;;;;;6.57;89.09;103157.47;5033304;28;20033;-80
2022/03/27 08:49:39;;;;;;;23.10;11.63;;;;;;;6.32;89.83;103146.19;5032189;28;20028;-80
2022/03/27 08:52:17;;;;;;;24.20;12.15;;;;;;;6.36;89.83;103154.91;5033121;28;20132;-80
2022/03/27 08:54:57;;;;;;;22.60;11.20;;;;;;;6.40;90.07;103151.66;5031940;28;20030;-79
2022/03/27 08:57:26;;;;;;;23.15;11.07;;;;;;;6.46;89.85;103151.91;5032193;28;20474;-80
2022/03/27 08:59:53;;;;;;;22.27;11.30;;;;;;;6.46;89.27;103153.59;5033670;28;20021;-77
2022/03/27 09:02:24;;;;;;;23.25;11.07;;;;;;;6.48;89.18;103151.94;5032295;28;20026;-79
2022/03/27 09:04:54;;;;;;;24.55;11.75;;;;;;;6.40;89.42;103154.22;5033516;28;20029;-79
2022/03/27 09:07:28;;;;;;;24.63;11.45;;;;;;;6.33;90.13;103155.69;5032796;28;20026;-79
2022/03/27 09:09:55;;;;;;;22.23;11.32;;;;;;;6.36;90.05;103164.38;5032391;28;20026;-79
2022/03/27 09:12:21;;;;;;;22.83;10.45;;;;;;;6.40;89.72;103158.53;5033049;28;20392;-79
2022/03/27 09:14:47;;;;;;;22.47;10.87;;;;;;;6.44;90.18;103158.69;5033020;28;20041;-79
2022/03/27 09:17:14;;;;;;;22.40;10.90;;;;;;;6.55;89.54;103171.13;5032001;28;20025;-79
2022/03/27 09:19:43;;;;;;;22.60;11.52;;;;;;;6.51;89.45;103164.97;5032668;28;20103;-79
2022/03/27 09:22:19;;;;;;;23.73;11.65;;;;;;;6.42;89.91;103165.50;5032200;28;20033;-79
2022/03/27 09:24:47;;;;;;;22.10;10.23;;;;;;;6.48;89.92;103164.84;5032072;28;20033;-79
2022/03/27 09:27:16;;;;;;;22.85;10.45;;;;;;;6.57;89.40;103164.34;5033032;28;20104;-79
2022/03/27 09:30:09;;;;;;;22.02;10.13;;;;;;;6.72;89.16;103174.38;5032003;28;20037;-79
2022/03/27 09:32:39;;;;;;;23.90;12.40;;;;;;;6.69;88.74;103172.56;5032792;28;20382;-80
2022/03/27 09:35:13;;;;;;;23.65;11.77;;;;;;;6.72;88.83;103167.50;5033179;28;20041;-80
2022/03/27 09:47:32;;;;;;;22.80;11.27;;;;;;;7.46;85.60;103165.84;5034129;28;20509;-80
2022/03/27 09:50:06;;;;;;;20.92;10.45;;;;;;;7.52;85.59;103141.13;5033522;28;20048;-79
2022/03/27 09:52:33;;;;;;;21.30;9.90;;;;;;;7.78;84.92;103151.44;5031699;28;20382;-78
2022/03/27 09:55:16;;;;;;;21.70;9.93;;;;;;;7.95;83.74;103145.97;5032161;28;20110;-79
2022/03/27 09:57:41;;;;;;;19.83;9.35;;;;;;;8.05;84.06;103142.84;5031959;28;20022;-79
2022/03/27 10:00:47;;;;;;;19.73;9.30;;;;;;;8.26;83.62;103134.00;5032362;28;20539;-79
2022/03/27 10:03:21;;;;;;;19.65;9.25;;;;;;;8.44;83.54;103120.75;5032461;28;20037;-79
2022/03/27 10:05:46;;;;;;;19.40;9.30;;;;;;;8.73;83.13;103123.34;5031137;28;20385;-80
2022/03/27 10:08:21;;;;;;;22.80;11.03;;;;;;;8.91;81.89;103117.81;5032629;28;20462;-78
2022/03/27 10:10:47;;;;;;;22.73;11.23;;;;;;;9.16;82.11;103113.31;5032788;28;20032;-78
2022/03/27 10:13:31;;;;;;;21.33;10.53;;;;;;;9.53;79.72;103109.13;5031495;28;20108;-78
2022/03/27 10:15:59;;;;;;;21.95;11.77;;;;;;;9.81;80.08;103108.09;5032647;28;20025;-78
2022/03/27 10:18:43;;;;;;;23.67;12.32;;;;;;;9.94;78.15;103111.84;5032346;28;20080;-78
2022/03/27 10:21:12;;;;;;;22.75;11.80;;;;;;;9.94;76.79;103119.63;5032744;28;20018;-78
2022/03/27 10:26:30;;;;;;;21.73;11.60;;;;;;;10.03;76.32;103111.19;5031180;28;20047;-78
2022/03/27 10:28:56;;;;;;;23.48;13.00;;;;;;;10.03;75.80;103099.06;5035220;28;20017;-78
2022/03/27 10:31:40;;;;;;;23.17;12.47;;;;;;;10.15;74.86;103098.50;5036091;28;20022;-78
2022/03/27 10:34:53;;;;;;;23.60;12.27;;;;;;;10.29;75.16;103096.22;5035093;28;20064;-78
2022/03/27 10:37:42;;;;;;;23.55;12.52;;;;;;;10.39;74.82;103093.84;4997941;28;20125;-79
2022/03/27 10:40:34;;;;;;;20.70;11.10;;;;;;;10.64;76.09;103090.94;5015622;28;20022;-78
2022/03/27 10:43:15;;;;;;;22.85;11.93;;;;;;;10.91;75.11;103084.53;5025305;28;20034;-79
2022/03/27 10:46:26;;;;;;;19.50;9.60;;;;;;;11.30;74.21;103092.16;5036077;28;20029;-79
2022/03/27 10:49:12;;;;;;;19.80;9.82;;;;;;;11.52;74.72;103080.41;5034944;28;20117;-79
2022/03/27 10:52:02;;;;;;;16.80;8.00;;;;;;;11.71;74.59;103068.56;5035578;28;20037;-79
2022/03/27 10:55:07;;;;;;;20.95;11.10;;;;;;;11.95;71.51;103080.19;5034508;28;20040;-79
2022/03/27 10:57:35;;;;;;;21.70;11.43;;;;;;;11.97;69.02;103065.47;5035790;28;20029;-79
2022/03/27 11:00:02;;;;;;;20.90;10.95;;;;;;;12.04;70.63;103068.22;5035322;28;20034;-79
2022/03/27 11:02:44;;;;;;;;;;;;;;;12.31;70.83;103076.41;5034645;28;20473;-79
2022/03/27 11:05:30;;;;;;;21.23;10.75;;;;;;;12.57;65.74;103068.91;5035383;28;20060;-79
2022/03/27 11:08:21;;;;;;;21.60;11.70;;;;;;;12.54;65.50;103076.72;5034541;28;20405;-80
2022/03/27 11:10:55;;;;;;;22.13;12.30;;;;;;;12.63;67.46;103062.91;5005065;28;20041;-80
2022/03/27 11:13:30;;;;;;;20.08;10.50;;;;;;;12.80;67.88;103066.59;5034752;28;20101;-80
2022/03/27 11:16:15;;;;;;;17.70;9.10;;;;;;;13.04;68.57;103057.28;5034587;28;20041;-80
2022/03/27 11:18:43;;;;;;;16.77;8.40;;;;;;;13.33;68.72;103059.25;5031459;28;20022;-79
2022/03/27 11:21:13;;;;;;;19.52;10.35;;;;;;;13.52;61.33;103049.00;5032237;28;20026;-79
2022/03/27 11:23:42;;;;;;;18.33;9.23;;;;;;;13.62;63.54;103048.25;5032313;28;20032;-79
2022/03/27 11:26:20;;;;;;;19.48;9.90;;;;;;;13.60;59.84;103049.97;5033845;28;20048;-80
2022/03/27 11:28:48;;;;;;;19.60;10.63;;;;;;;13.65;60.53;103045.63;5033662;28;20041;-79
2022/03/27 11:31:16;;;;;;;19.20;10.27;;;;;;;13.73;59.25;103043.06;5033697;28;20029;-80
2022/03/27 11:33:41;;;;;;;19.20;9.45;;;;;;;13.84;63.13;103041.41;5034738;28;20198;-81
2022/03/27 11:36:11;;;;;;;17.63;9.00;;;;;;;14.07;60.31;103037.19;5034198;28;20113;-79
2022/03/27 11:38:49;;;;;;;18.00;9.10;;;;;;;14.19;55.75;103040.75;5034383;28;20037;-79
2022/03/27 11:41:26;;;;;;;20.83;10.52;;;;;;;14.10;57.15;103035.47;5034471;28;20037;-80
2022/03/27 11:43:53;;;;;;;18.05;9.25;;;;;;;14.15;60.23;103032.88;5034216;28;20400;-80
2022/03/27 11:46:26;;;;;;;17.98;9.10;;;;;;;14.38;57.53;103032.97;5034296;28;20090;-83
2022/03/27 11:48:55;;;;;;;17.83;8.93;;;;;;;14.47;60.24;103029.53;5034352;28;20481;-79